Time;durP1;ratioP1;P1;durP2;ratioP2;P2;SDS_P1;SDS_P2;PMS_P1;PMS_P2;Temp;Humidity;BMP_temperature;BMP_pressure;BME280_temperature;BME280_humidity;BME280_pressure;Samples;Min_cycle;Max_cycle;Signal;HPM_P1;HPM_P2
2022/10/17 00:00:04;;;;;;;4.15;3.25;;;;;;;13.75;96.16;101540.16;5018252;28;20224;-88
2022/10/17 00:02:30;;;;;;;3.00;2.80;;;;;;;13.76;96.29;101543.63;5000329;28;20033;-88
2022/10/17 00:04:55;;;;;;;4.13;3.67;;;;;;;13.75;96.28;101542.78;5002007;28;20105;-88
2022/10/17 00:07:21;;;;;;;4.68;3.70;;;;;;;13.75;96.71;101532.25;4998080;28;20092;-88
2022/10/17 00:09:46;;;;;;;4.82;3.83;;;;;;;13.75;96.46;101531.38;4998243;28;20042;-88
2022/10/17 00:12:11;;;;;;;3.92;3.53;;;;;;;13.76;97.07;101533.09;4980926;28;20038;-88
2022/10/17 00:14:37;;;;;;;5.28;3.63;;;;;;;13.74;96.60;101533.16;4998148;28;20280;-88
2022/10/17 00:17:03;;;;;;;3.80;3.50;;;;;;;13.73;96.90;101525.31;4997310;28;20034;-88
2022/10/17 00:19:29;;;;;;;4.18;3.70;;;;;;;13.74;96.84;101533.16;4980832;28;20049;-88
2022/10/17 00:21:54;;;;;;;3.88;3.58;;;;;;;13.74;96.59;101524.41;4980938;28;20041;-88
2022/10/17 00:24:20;;;;;;;10.27;4.70;;;;;;;13.74;96.48;101524.41;4998070;28;20034;-88
2022/10/17 00:26:45;;;;;;;4.13;3.80;;;;;;;13.74;96.62;101527.06;4980932;28;20080;-89
2022/10/17 00:29:10;;;;;;;3.80;3.50;;;;;;;13.73;96.93;101523.53;4977869;28;20316;-88
2022/10/17 00:31:36;;;;;;;4.40;4.03;;;;;;;13.73;96.64;101518.28;5015183;28;20049;-89
2022/10/17 00:34:01;;;;;;;4.20;3.90;;;;;;;13.74;96.80;101516.53;5008582;28;20062;-89
2022/10/17 00:36:26;;;;;;;5.80;3.50;;;;;;;13.73;96.93;101520.91;5014013;28;20296;-89
2022/10/17 00:38:58;;;;;;;4.32;3.92;;;;;;;13.74;96.70;101524.41;5000108;28;20073;-89
2022/10/17 00:41:28;;;;;;;4.70;4.40;;;;;;;13.71;96.68;101514.84;4999575;28;20194;-89
2022/10/17 00:44:23;;;;;;;4.57;4.28;;;;;;;13.72;96.88;101510.47;5010242;28;20398;-88
2022/10/17 00:46:48;;;;;;;4.90;4.40;;;;;;;13.73;97.16;101515.66;4999505;28;20057;-89
2022/10/17 00:49:13;;;;;;;7.00;5.35;;;;;;;13.73;97.43;101514.78;4999827;28;20080;-88
2022/10/17 00:51:45;;;;;;;5.72;5.22;;;;;;;13.72;97.28;101521.00;5017353;28;20037;-88
2022/10/17 00:54:13;;;;;;;4.90;4.50;;;;;;;13.71;97.31;101525.38;5017138;28;20030;-88
2022/10/17 00:56:39;;;;;;;4.78;4.38;;;;;;;13.72;97.36;101523.63;5015890;28;20041;-88
2022/10/17 00:59:08;;;;;;;6.22;4.95;;;;;;;13.72;97.00;101523.63;5017838;28;20231;-89
2022/10/17 01:01:33;;;;;;;5.20;4.80;;;;;;;13.70;97.11;101520.19;5017130;28;20068;-88
2022/10/17 01:04:00;;;;;;;4.88;4.30;;;;;;;13.72;97.01;101521.00;5018075;28;20038;-89
2022/10/17 01:06:25;;;;;;;4.93;4.53;;;;;;;13.71;97.00;101514.84;5019829;28;20376;-89
2022/10/17 01:08:51;;;;;;;5.40;4.93;;;;;;;13.72;96.89;101515.75;5019535;28;20029;-88
2022/10/17 01:11:21;;;;;;;7.32;5.40;;;;;;;13.72;97.09;101513.94;5020808;28;20048;-88
2022/10/17 01:14:09;;;;;;;5.50;5.10;;;;;;;13.73;97.39;101506.91;5020228;28;20061;-89
2022/10/17 01:16:58;;;;;;;7.35;5.32;;;;;;;13.71;97.23;101501.69;5020322;28;20033;-89
2022/10/17 01:19:39;;;;;;;5.20;4.80;;;;;;;13.69;97.33;101493.00;5018980;28;20128;-89
2022/10/17 01:22:46;;;;;;;5.25;4.80;;;;;;;13.71;97.36;101492.97;5003150;28;20068;-88
2022/10/17 01:25:36;;;;;;;5.13;4.72;;;;;;;13.69;97.23;101476.38;4998828;28;20371;-88
2022/10/17 01:28:24;;;;;;;5.53;5.13;;;;;;;13.70;97.25;101475.44;5020423;28;20046;-89
2022/10/17 01:31:00;;;;;;;5.23;4.83;;;;;;;13.69;97.46;101471.97;5020717;28;20329;-88
2022/10/17 01:33:39;;;;;;;5.75;5.30;;;;;;;13.69;97.16;101468.47;5028282;28;20264;-88
2022/10/17 01:36:11;;;;;;;5.38;4.97;;;;;;;13.70;97.47;101478.06;5038073;28;20044;-88
2022/10/17 01:38:46;;;;;;;5.68;5.18;;;;;;;13.69;97.09;101477.22;5037202;28;20036;-89
2022/10/17 01:41:24;;;;;;;5.53;5.03;;;;;;;13.68;97.02;101475.53;5028010;28;20025;-89
2022/10/17 01:44:00;;;;;;;5.20;4.80;;;;;;;13.70;96.94;101478.06;5039385;28;20033;-89
2022/10/17 01:46:34;;;;;;;5.80;5.20;;;;;;;13.69;97.09;101479.00;5036009;28;20025;-89
2022/10/17 01:49:01;;;;;;;5.30;4.90;;;;;;;13.68;96.79;101469.38;5039910;28;20108;-89
2022/10/17 01:51:32;;;;;;;5.63;5.30;;;;;;;13.68;96.62;101472.91;5036542;28;20025;-89
2022/10/17 01:54:03;;;;;;;5.32;4.72;;;;;;;13.69;96.58;101464.06;5003081;28;20320;-88
2022/10/17 01:56:31;;;;;;;5.10;4.70;;;;;;;13.68;96.63;101462.38;5020039;28;20331;-89
2022/10/17 01:59:01;;;;;;;5.68;5.18;;;;;;;13.69;96.54;101456.16;5006662;28;20045;-88
2022/10/17 02:01:29;;;;;;;5.20;4.80;;;;;;;13.69;96.77;101463.22;5020726;28;20194;-88
2022/10/17 02:03:58;;;;;;;6.03;5.32;;;;;;;13.68;96.51;101459.75;5023763;28;20045;-89
2022/10/17 02:06:23;;;;;;;7.05;5.70;;;;;;;13.69;96.48;101452.69;5040218;28;20241;-89
2022/10/17 02:08:50;;;;;;;5.70;5.20;;;;;;;13.69;96.79;101457.94;5021774;28;20340;-88
2022/10/17 02:11:19;;;;;;;5.78;5.35;;;;;;;13.69;96.42;101447.41;5021905;28;20071;-88
2022/10/17 02:14:08;;;;;;;5.82;5.20;;;;;;;13.69;96.84;101445.63;5031059;28;20386;-88
2022/10/17 02:17:21;;;;;;;5.00;4.60;;;;;;;13.69;96.60;101439.53;5039406;28;20037;-86
2022/10/17 02:20:07;;;;;;;5.40;5.00;;;;;;;13.67;96.79;101441.38;4997511;28;20040;-86
2022/10/17 02:22:47;;;;;;;6.15;5.65;;;;;;;13.68;96.83;101433.41;5018978;28;20032;-86
2022/10/17 02:25:22;;;;;;;5.13;4.72;;;;;;;13.68;96.34;101440.44;5019229;28;20061;-86
2022/10/17 02:27:54;;;;;;;5.28;4.90;;;;;;;13.67;96.67;101425.59;5019509;28;20085;-86
2022/10/17 02:30:45;;;;;;;5.97;5.10;;;;;;;13.67;96.44;101423.81;5001028;28;20034;-86
2022/10/17 02:33:26;;;;;;;5.47;5.07;;;;;;;13.67;96.45;101421.16;5031225;28;20076;-86
2022/10/17 02:35:56;;;;;;;5.45;5.05;;;;;;;13.67;96.52;101433.47;5039650;28;20363;-86
2022/10/17 02:38:24;;;;;;;5.40;5.00;;;;;;;13.67;96.69;101439.59;5038817;28;20036;-86
2022/10/17 02:40:51;;;;;;;5.35;4.95;;;;;;;13.68;96.68;101443.94;5037836;28;20025;-86
2022/10/17 02:43:18;;;;;;;5.50;5.10;;;;;;;13.66;96.59;101437.91;5038892;28;20029;-86
2022/10/17 02:45:45;;;;;;;5.60;5.20;;;;;;;13.67;96.85;101439.59;5037425;28;20251;-86
2022/10/17 02:48:22;;;;;;;5.90;5.50;;;;;;;13.67;96.79;101434.31;5037776;28;20112;-86
2022/10/17 02:51:13;;;;;;;6.65;5.00;;;;;;;13.68;96.47;101453.59;5039295;28;20044;-86
2022/10/17 02:53:41;;;;;;;5.38;4.85;;;;;;;13.69;96.42;101463.22;5038771;28;20093;-86
2022/10/17 02:56:20;;;;;;;6.07;5.68;;;;;;;13.68;96.93;101461.50;5038569;28;20123;-86
2022/10/17 02:58:51;;;;;;;6.72;5.35;;;;;;;13.69;97.22;101465.84;5037661;28;20040;-86
2022/10/17 03:01:17;;;;;;;5.82;5.32;;;;;;;13.69;97.29;101457.94;5038402;28;20037;-86
2022/10/17 03:03:42;;;;;;;5.38;4.97;;;;;;;13.69;97.02;101463.22;5031975;28;20260;-86
2022/10/17 03:06:08;;;;;;;9.02;5.07;;;;;;;13.69;97.10;101465.84;5018972;28;20109;-86
2022/10/17 03:08:33;;;;;;;5.25;4.85;;;;;;;13.69;97.13;101457.94;5033816;28;20052;-86
2022/10/17 03:10:58;;;;;;;6.22;5.63;;;;;;;13.69;97.12;101461.44;5038312;28;20033;-86
2022/10/17 03:13:24;;;;;;;6.35;5.53;;;;;;;13.70;97.28;101463.16;5038082;28;20434;-86
2022/10/17 03:15:49;;;;;;;5.60;5.20;;;;;;;13.72;97.40;101452.56;5020908;28;20033;-86
2022/10/17 03:18:15;;;;;;;6.30;5.55;;;;;;;13.71;97.38;101461.38;5038055;28;20320;-86
2022/10/17 03:20:40;;;;;;;5.78;5.15;;;;;;;13.73;97.99;101460.38;5017694;28;20037;-86
2022/10/17 03:23:06;;;;;;;4.97;4.68;;;;;;;13.73;98.41;101465.63;5019016;28;20037;-86
2022/10/17 03:25:31;;;;;;;5.68;5.13;;;;;;;13.74;98.38;101466.50;5000385;28;20049;-86
2022/10/17 03:27:59;;;;;;;7.65;5.70;;;;;;;13.75;98.28;101462.94;5000179;28;20315;-86
2022/10/17 03:30:24;;;;;;;5.60;5.03;;;;;;;13.76;98.78;101454.13;5017965;28;20371;-86
2022/10/17 03:32:50;;;;;;;7.40;5.90;;;;;;;13.77;98.70;101455.81;5017854;28;20109;-86
2022/10/17 03:35:15;;;;;;;7.22;6.13;;;;;;;13.77;98.94;101459.34;4996855;28;20341;-86
2022/10/17 03:37:40;;;;;;;5.60;5.00;;;;;;;13.78;99.33;101457.53;4998580;28;20042;-86
2022/10/17 03:40:06;;;;;;;5.55;5.07;;;;;;;13.78;99.37;101461.03;4980919;28;20030;-86
2022/10/17 03:42:31;;;;;;;7.25;5.20;;;;;;;13.80;99.82;101460.97;5001663;28;20046;-86
2022/10/17 03:44:57;;;;;;;5.80;5.30;;;;;;;13.80;99.69;101467.06;5024773;28;20033;-86
2022/10/17 03:47:22;;;;;;;6.82;5.95;;;;;;;13.82;100.00;101460.00;5036035;28;20369;-86
2022/10/17 03:49:48;;;;;;;6.05;5.45;;;;;;;13.82;100.00;101470.53;5019431;28;20237;-86
2022/10/17 03:52:13;;;;;;;6.43;5.82;;;;;;;13.82;100.00;101460.00;5036684;28;20243;-86
2022/10/17 03:54:39;;;;;;;10.15;5.90;;;;;;;13.83;99.76;101468.72;5018622;28;20045;-86
2022/10/17 03:57:05;;;;;;;7.85;5.88;;;;;;;13.83;100.00;101477.47;5036930;28;20045;-86
2022/10/17 03:59:30;;;;;;;6.32;5.75;;;;;;;13.84;100.00;101478.31;4991563;28;20314;-86
2022/10/17 04:01:56;;;;;;;8.13;6.07;;;;;;;13.86;100.00;101480.91;5029000;28;20041;-86
2022/10/17 04:04:21;;;;;;;7.05;6.35;;;;;;;13.86;100.00;101473.88;5020157;28;20293;-86
2022/10/17 04:06:47;;;;;;;7.90;6.22;;;;;;;13.88;100.00;101484.31;5017955;28;20042;-86
2022/10/17 04:09:12;;;;;;;9.20;5.82;;;;;;;13.87;100.00;101478.19;5029730;28;20060;-86
2022/10/17 04:11:38;;;;;;;10.00;5.80;;;;;;;13.88;100.00;101474.66;5019004;28;20392;-86
2022/10/17 04:14:03;;;;;;;7.28;5.70;;;;;;;13.89;100.00;101478.13;5029106;28;20026;-86
2022/10/17 04:16:29;;;;;;;6.47;5.82;;;;;;;13.90;100.00;101478.06;5017075;28;20375;-86
2022/10/17 04:18:57;;;;;;;9.52;5.68;;;;;;;13.91;100.00;101479.75;5017228;28;20033;-86
2022/10/17 04:21:23;;;;;;;8.23;6.45;;;;;;;13.92;100.00;101478.84;5017330;28;20066;-86
2022/10/17 04:23:54;;;;;;;8.13;6.72;;;;;;;13.94;100.00;101494.59;5017630;28;20093;-86
2022/10/17 04:26:19;;;;;;;8.55;6.10;;;;;;;13.95;100.00;101491.00;5001691;28;20195;-86
2022/10/17 04:28:45;;;;;;;6.53;6.00;;;;;;;13.96;100.00;101488.31;5032519;28;20022;-86
2022/10/17 04:31:12;;;;;;;7.90;6.20;;;;;;;13.98;100.00;101488.25;5016743;28;20037;-86
2022/10/17 04:33:38;;;;;;;5.68;5.28;;;;;;;14.00;100.00;101496.94;5032396;28;20075;-86
2022/10/17 04:36:06;;;;;;;7.25;5.32;;;;;;;14.00;100.00;101489.03;5035498;28;20034;-86
2022/10/17 04:38:31;;;;;;;6.53;5.90;;;;;;;14.02;100.00;101493.34;5038966;28;20217;-86
2022/10/17 04:41:01;;;;;;;6.15;5.50;;;;;;;14.04;100.00;101497.66;5041297;28;20080;-86
2022/10/17 04:43:26;;;;;;;9.63;5.95;;;;;;;14.07;100.00;101494.91;5020954;28;20374;-86
2022/10/17 04:45:52;;;;;;;5.82;5.32;;;;;;;14.07;100.00;101494.91;5019556;28;20379;-86
2022/10/17 04:48:17;;;;;;;4.95;4.55;;;;;;;14.08;100.00;101486.94;5034997;28;20130;-86
2022/10/17 04:50:52;;;;;;;6.43;5.78;;;;;;;14.10;100.00;101492.09;5003670;28;20241;-86
2022/10/17 04:53:18;;;;;;;7.80;5.88;;;;;;;14.13;100.00;101494.59;5040425;28;20466;-86
2022/10/17 04:55:43;;;;;;;6.50;5.90;;;;;;;14.14;100.00;101496.34;5039009;28;20045;-86
2022/10/17 04:58:09;;;;;;;7.13;5.30;;;;;;;14.16;100.00;101503.22;5020761;28;20091;-86
2022/10/17 05:00:34;;;;;;;6.53;5.97;;;;;;;14.17;100.00;101501.44;5021650;28;20030;-87
2022/10/17 05:03:00;;;;;;;9.70;6.68;;;;;;;14.19;100.00;101499.63;5021004;28;20084;-86
2022/10/17 05:05:25;;;;;;;5.47;4.90;;;;;;;14.20;100.00;101496.88;5010544;28;20033;-86
2022/10/17 05:07:50;;;;;;;7.35;5.60;;;;;;;14.21;100.00;101510.94;5022309;28;20049;-86
2022/10/17 05:10:16;;;;;;;6.13;5.65;;;;;;;14.23;100.00;101524.88;5019715;28;20390;-86
2022/10/17 05:12:42;;;;;;;6.82;5.82;;;;;;;14.23;100.00;101526.69;5028710;28;20037;-86
2022/10/17 05:15:07;;;;;;;7.70;5.93;;;;;;;14.26;100.00;101526.53;5004727;28;20033;-86
2022/10/17 05:17:33;;;;;;;7.53;5.43;;;;;;;14.27;100.00;101521.19;5002809;28;20030;-86
2022/10/17 05:19:58;;;;;;;5.60;5.20;;;;;;;14.28;100.00;101519.41;5034026;28;20041;-86
2022/10/17 05:22:24;;;;;;;6.65;6.07;;;;;;;14.29;100.00;101516.69;5012184;28;20331;-86
2022/10/17 05:24:49;;;;;;;6.85;6.20;;;;;;;14.30;100.00;101517.56;5023851;28;20049;-86
2022/10/17 05:27:14;;;;;;;5.95;5.45;;;;;;;14.31;100.00;101509.56;5020357;28;20255;-86
2022/10/17 05:29:40;;;;;;;9.35;6.28;;;;;;;14.32;100.00;101511.28;5026069;28;20047;-86
2022/10/17 05:32:05;;;;;;;8.25;6.47;;;;;;;14.34;100.00;101505.97;5003387;28;20077;-87
2022/10/17 05:34:32;;;;;;;7.88;6.43;;;;;;;14.35;100.00;101508.53;4992469;28;20042;-86
2022/10/17 05:36:57;;;;;;;7.75;5.55;;;;;;;14.36;100.00;101512.84;5013287;28;20250;-86
2022/10/17 05:39:23;;;;;;;11.02;6.78;;;;;;;14.38;100.00;101518.06;5000467;28;20037;-86
2022/10/17 05:41:50;;;;;;;9.73;6.80;;;;;;;14.37;100.00;101524.25;5002520;28;20244;-86
2022/10/17 05:44:15;;;;;;;10.98;6.80;;;;;;;14.38;100.00;101529.44;5002488;28;20045;-86
2022/10/17 05:46:40;;;;;;;7.40;6.80;;;;;;;14.38;100.00;101521.53;4989057;28;20053;-85
2022/10/17 05:49:06;;;;;;;7.10;6.50;;;;;;;14.39;100.00;101519.78;5001529;28;20113;-86
2022/10/17 05:51:34;;;;;;;7.90;6.72;;;;;;;14.39;100.00;101520.63;5012636;28;20049;-86
2022/10/17 05:54:00;;;;;;;11.68;7.10;;;;;;;14.38;100.00;101521.53;5004809;28;20038;-86
2022/10/17 05:56:25;;;;;;;6.60;6.00;;;;;;;14.38;100.00;101526.81;4975705;28;20030;-86
2022/10/17 05:58:50;;;;;;;8.93;7.00;;;;;;;14.39;100.00;101523.28;4992474;28;20030;-87
2022/10/17 06:01:16;;;;;;;10.30;7.15;;;;;;;14.40;100.00;101530.22;4996365;28;20022;-86
2022/10/17 06:03:41;;;;;;;13.20;6.80;;;;;;;14.40;100.00;101530.22;5006895;28;20078;-87
2022/10/17 06:06:12;;;;;;;9.10;7.18;;;;;;;14.42;100.00;101535.44;4998801;28;20104;-86
2022/10/17 06:08:37;;;;;;;9.45;6.38;;;;;;;14.44;100.00;101540.63;5019212;28;20111;-86
2022/10/17 06:11:03;;;;;;;8.15;7.07;;;;;;;14.43;100.00;101542.44;5018748;28;20041;-86
2022/10/17 06:13:29;;;;;;;7.63;6.32;;;;;;;14.44;100.00;101546.75;4983694;28;20265;-86
2022/10/17 06:15:55;;;;;;;8.70;6.30;;;;;;;14.44;100.00;101551.19;4981470;28;20314;-86
2022/10/17 06:18:20;;;;;;;8.18;6.30;;;;;;;14.44;100.00;101556.44;5002542;28;20148;-86
2022/10/17 06:20:45;;;;;;;9.00;6.90;;;;;;;14.46;100.00;101558.13;4979119;28;20065;-86
2022/10/17 06:23:11;;;;;;;11.07;7.60;;;;;;;14.47;100.00;101564.22;5004073;28;20322;-86
2022/10/17 06:25:36;;;;;;;9.43;6.40;;;;;;;14.46;100.00;101573.03;5006136;28;20108;-86
2022/10/17 06:28:02;;;;;;;7.45;6.38;;;;;;;14.46;100.00;101568.66;5006670;28;20048;-86
2022/10/17 06:30:28;;;;;;;8.35;6.75;;;;;;;14.45;100.00;101579.25;4999381;28;20025;-86
2022/10/17 06:32:53;;;;;;;7.90;7.10;;;;;;;14.44;100.00;101567.00;4998973;28;20073;-86
2022/10/17 06:35:19;;;;;;;7.47;6.78;;;;;;;14.44;100.00;101572.25;5002930;28;20334;-86
2022/10/17 06:37:45;;;;;;;7.43;5.65;;;;;;;14.46;100.00;101583.59;5007925;28;20030;-85
2022/10/17 06:40:11;;;;;;;8.05;6.70;;;;;;;14.46;100.00;101573.03;5016195;28;20135;-86
2022/10/17 06:42:37;;;;;;;9.90;7.28;;;;;;;14.47;100.00;101566.88;5010814;28;20092;-86
2022/10/17 06:45:04;;;;;;;10.45;7.20;;;;;;;14.46;100.00;101570.41;5013764;28;20056;-86
2022/10/17 06:47:29;;;;;;;7.72;6.68;;;;;;;14.46;100.00;101586.22;5013075;28;20417;-86
2022/10/17 06:49:54;;;;;;;7.45;6.75;;;;;;;14.46;100.00;101586.22;4990471;28;20038;-86
2022/10/17 06:52:20;;;;;;;10.45;7.22;;;;;;;14.46;100.00;101597.63;4994365;28;20287;-86
2022/10/17 06:54:45;;;;;;;16.52;8.30;;;;;;;14.47;100.00;101587.94;4999436;28;20041;-86
2022/10/17 06:57:11;;;;;;;7.63;6.93;;;;;;;14.48;100.00;101592.28;5007353;28;20134;-86
2022/10/17 06:59:36;;;;;;;8.00;7.20;;;;;;;14.48;100.00;101597.53;4995437;28;20080;-86
2022/10/17 07:02:01;;;;;;;7.88;7.07;;;;;;;14.47;100.00;101624.84;4989190;28;20264;-86
2022/10/17 07:04:27;;;;;;;8.57;6.55;;;;;;;14.47;100.00;101643.28;5001607;28;20042;-85
2022/10/17 07:06:52;;;;;;;7.53;6.72;;;;;;;14.47;100.00;101651.19;5018517;28;20291;-86
2022/10/17 07:09:18;;;;;;;8.98;6.47;;;;;;;14.47;100.00;101653.84;4996534;28;20356;-86
2022/10/17 07:11:43;;;;;;;12.15;6.80;;;;;;;14.46;100.00;101647.72;4997970;28;20252;-86
2022/10/17 07:14:09;;;;;;;11.57;7.88;;;;;;;14.48;100.00;101656.41;4998287;28;20041;-86
2022/10/17 07:16:34;;;;;;;8.20;7.38;;;;;;;14.49;100.00;101671.28;4999574;28;20033;-86
2022/10/17 07:18:59;;;;;;;11.85;6.68;;;;;;;14.49;100.00;101678.34;4980876;28;20261;-86
2022/10/17 07:21:25;;;;;;;8.25;6.30;;;;;;;14.48;100.00;101692.44;4996526;28;20034;-86
2022/10/17 07:23:56;;;;;;;7.68;5.63;;;;;;;14.49;100.00;101694.16;5100818;27;20600;-75
2022/10/17 07:26:21;;;;;;;13.38;6.53;;;;;;;14.49;100.00;101710.81;5073532;28;20038;-75
2022/10/17 07:28:51;;;;;;;12.38;6.93;;;;;;;14.51;100.00;101729.19;5074387;28;20040;-75
2022/10/17 07:31:18;;;;;;;8.13;5.78;;;;;;;14.52;100.00;101744.94;5075923;28;20106;-75
2022/10/17 07:33:44;;;;;;;11.20;6.53;;;;;;;14.55;100.00;101751.84;5076882;28;20323;-75
2022/10/17 07:36:10;;;;;;;7.60;6.90;;;;;;;14.56;100.00;101750.94;5073536;28;20043;-75
2022/10/17 07:38:36;;;;;;;7.18;6.35;;;;;;;14.58;100.00;101746.50;5073683;28;20334;-75
2022/10/17 07:41:05;;;;;;;8.95;6.47;;;;;;;14.59;100.00;101756.13;5072954;28;20036;-75
2022/10/17 07:43:30;;;;;;;9.82;6.55;;;;;;;14.60;100.00;101773.66;5073486;28;20059;-75
2022/10/17 07:45:56;;;;;;;8.52;6.28;;;;;;;14.62;100.00;101786.75;5074243;28;20036;-75
2022/10/17 07:48:23;;;;;;;7.13;6.38;;;;;;;14.63;100.00;101784.06;5072220;28;20062;-75
2022/10/17 07:50:49;;;;;;;6.38;5.70;;;;;;;14.66;100.00;101790.97;5070699;28;20035;-75
2022/10/17 07:53:15;;;;;;;11.15;6.78;;;;;;;14.66;100.00;101783.06;5071410;28;20037;-75
2022/10/17 07:55:41;;;;;;;10.02;6.30;;;;;;;14.70;100.00;101777.63;5070431;28;20523;-75
2022/10/17 07:58:08;;;;;;;7.75;5.93;;;;;;;14.71;100.00;101789.00;5073663;28;20033;-75
2022/10/17 08:00:34;;;;;;;12.93;5.50;;;;;;;14.72;100.00;101788.94;5071369;28;20074;-75
2022/10/17 08:02:59;;;;;;;8.48;5.80;;;;;;;14.73;100.00;101781.88;5072048;28;20067;-75
2022/10/17 08:05:24;;;;;;;7.20;6.15;;;;;;;14.75;100.00;101778.28;5073858;28;20036;-74
2022/10/17 08:07:50;;;;;;;6.40;5.80;;;;;;;14.78;100.00;101791.31;5052108;28;20036;-75
2022/10/17 08:10:16;;;;;;;7.60;5.82;;;;;;;14.78;100.00;101793.09;5072727;28;20037;-75
2022/10/17 08:12:41;;;;;;;6.60;6.10;;;;;;;14.80;100.00;101809.69;5071928;28;20320;-75
2022/10/17 08:15:08;;;;;;;7.05;5.53;;;;;;;14.81;100.00;101798.25;5084830;28;20038;-75
2022/10/17 08:17:35;;;;;;;6.13;5.47;;;;;;;14.82;100.00;101781.47;5091881;28;20134;-75
2022/10/17 08:20:01;;;;;;;9.75;6.53;;;;;;;14.84;100.00;101778.78;5091936;28;20012;-74
2022/10/17 08:22:26;;;;;;;6.00;5.38;;;;;;;14.85;100.00;101767.31;5088859;28;20115;-75
2022/10/17 08:24:52;;;;;;;8.10;6.53;;;;;;;14.85;100.00;101757.63;5049942;28;20367;-75
2022/10/17 08:27:22;;;;;;;6.70;5.72;;;;;;;14.88;100.00;101768.06;5071110;28;20351;-74
2022/10/17 08:29:51;;;;;;;6.78;5.65;;;;;;;14.90;100.00;101778.53;5071764;28;20088;-75
2022/10/17 08:32:17;;;;;;;;;;;;;;;14.90;100.00;101776.75;5075311;28;20099;-75
2022/10/17 08:34:42;;;;;;;8.63;6.32;;;;;;;14.93;100.00;101762.56;5092597;28;20173;-74
2022/10/17 08:37:08;;;;;;;8.52;6.43;;;;;;;14.94;100.00;101743.19;5063114;28;20336;-75
2022/10/17 08:39:33;;;;;;;8.70;6.57;;;;;;;14.94;100.00;101736.13;5040858;28;20037;-75
2022/10/17 08:42:04;;;;;;;8.15;5.25;;;;;;;14.94;100.00;101744.03;5057054;28;20052;-75
2022/10/17 08:44:59;;;;;;;6.40;5.85;;;;;;;14.97;100.00;101743.03;5059281;28;20025;-75
2022/10/17 08:47:34;;;;;;;9.48;5.80;;;;;;;14.98;100.00;101755.31;5045562;28;20112;-74
2022/10/17 08:50:04;;;;;;;9.13;6.53;;;;;;;14.98;100.00;101771.97;5062085;28;20306;-74
2022/10/17 08:52:50;;;;;;;10.93;7.13;;;;;;;15.01;100.00;101772.75;5056805;28;20060;-75
2022/10/17 08:55:37;;;;;;;10.60;6.15;;;;;;;15.01;100.00;101786.81;5054946;28;20037;-75
2022/10/17 08:58:02;;;;;;;8.43;5.90;;;;;;;15.02;100.00;101795.59;5057348;28;20067;-74
2022/10/17 09:00:30;;;;;;;9.13;6.10;;;;;;;15.02;100.00;101796.44;5058684;28;20036;-74
2022/10/17 09:03:14;;;;;;;8.18;6.28;;;;;;;15.03;100.00;101810.50;5058176;28;20037;-74
2022/10/17 09:05:48;;;;;;;7.38;6.28;;;;;;;15.05;100.00;101803.38;5056490;28;20031;-74
2022/10/17 09:08:40;;;;;;;8.45;5.88;;;;;;;15.06;100.00;101789.25;5056389;28;20024;-75
2022/10/17 09:11:19;;;;;;;10.57;6.85;;;;;;;15.08;100.00;101804.09;5072239;28;20255;-75
2022/10/17 09:14:28;;;;;;;8.63;6.30;;;;;;;15.09;100.00;101786.47;5056222;28;20373;-74
2022/10/17 09:17:21;;;;;;;7.22;6.40;;;;;;;15.10;100.00;101789.06;5036972;28;20320;-74
2022/10/17 09:20:02;;;;;;;7.03;6.32;;;;;;;15.12;100.00;101791.63;5056167;28;20033;-75
2022/10/17 09:22:36;;;;;;;6.07;5.47;;;;;;;15.14;100.00;101789.78;5071606;28;20049;-74
2022/10/17 09:25:05;;;;;;;8.10;5.45;;;;;;;15.15;100.00;101787.06;5068677;28;20021;-75
2022/10/17 09:27:52;;;;;;;6.63;5.90;;;;;;;15.14;100.00;101793.25;5055734;28;20012;-75
2022/10/17 09:30:34;;;;;;;7.38;5.40;;;;;;;15.17;100.00;101813.34;5056499;28;20375;-74
2022/10/17 09:33:00;;;;;;;10.35;6.05;;;;;;;15.19;100.00;101808.91;5056335;28;20121;-75
2022/10/17 09:35:29;;;;;;;5.82;5.28;;;;;;;15.20;100.00;101833.50;5071518;28;20028;-75
2022/10/17 09:37:54;;;;;;;8.00;5.22;;;;;;;15.20;100.00;101842.25;5057674;28;20105;-75
2022/10/17 09:40:33;;;;;;;7.07;6.10;;;;;;;15.22;100.00;101855.38;5057515;28;20029;-75
2022/10/17 09:43:00;;;;;;;;;;;;;;;15.22;100.00;101874.72;5057720;28;20039;-75
2022/10/17 09:45:32;;;;;;;6.40;5.20;;;;;;;15.21;100.00;101867.72;5056267;28;20154;-75
2022/10/17 09:48:10;;;;;;;7.78;5.88;;;;;;;15.22;100.00;101871.22;5057335;28;20048;-75
2022/10/17 09:50:36;;;;;;;5.93;5.35;;;;;;;15.23;100.00;101865.03;5055290;28;20056;-75
2022/10/17 09:53:28;;;;;;;7.80;5.30;;;;;;;15.23;100.00;101879.06;5057203;28;20304;-75
2022/10/17 09:55:57;;;;;;;7.53;5.60;;;;;;;15.23;100.00;101880.88;5057108;28;20120;-74
2022/10/17 09:58:38;;;;;;;7.90;5.80;;;;;;;15.23;100.00;101887.00;5056106;28;20088;-74
2022/10/17 10:01:19;;;;;;;9.65;5.13;;;;;;;15.24;100.00;101895.75;5055242;28;20215;-74
2022/10/17 10:03:45;;;;;;;8.65;5.97;;;;;;;15.25;100.00;101895.69;5063505;28;20016;-74
2022/10/17 10:06:17;;;;;;;8.02;5.60;;;;;;;15.25;100.00;101906.25;5066176;28;20050;-74
2022/10/17 10:08:54;;;;;;;7.05;5.22;;;;;;;15.24;100.00;101907.16;5068856;28;20028;-75
2022/10/17 10:11:42;;;;;;;6.05;5.22;;;;;;;15.25;100.00;101908.03;5055909;28;20021;-75
2022/10/17 10:14:32;;;;;;;5.50;4.80;;;;;;;15.25;100.00;101908.03;5056848;28;20328;-75
2022/10/17 10:16:58;;;;;;;5.03;4.35;;;;;;;15.25;100.00;101915.97;5054415;28;20324;-75
2022/10/17 10:19:30;;;;;;;5.90;4.72;;;;;;;15.24;100.00;101925.63;5071597;28;20019;-74
2022/10/17 10:21:59;;;;;;;9.40;4.68;;;;;;;15.25;100.00;101927.38;5056753;28;20041;-74
2022/10/17 10:24:26;;;;;;;7.57;4.70;;;;;;;15.25;100.00;101924.72;5056439;28;20033;-75
2022/10/17 10:26:54;;;;;;;4.40;4.00;;;;;;;15.25;100.00;101937.06;5071182;28;20029;-75
2022/10/17 10:29:42;;;;;;;4.57;4.00;;;;;;;15.25;100.00;101929.16;5055976;28;20101;-74
2022/10/17 10:32:26;;;;;;;4.03;3.70;;;;;;;15.24;100.00;101944.09;5072140;28;20339;-74
2022/10/17 10:34:52;;;;;;;4.20;3.30;;;;;;;15.25;100.00;101945.00;5055708;28;20016;-74
2022/10/17 10:37:22;;;;;;;4.78;3.78;;;;;;;15.25;100.00;101947.63;5056259;28;20029;-74
2022/10/17 10:40:05;;;;;;;6.32;3.85;;;;;;;15.26;100.00;101967.78;5055012;28;20025;-75
2022/10/17 10:42:37;;;;;;;4.25;3.72;;;;;;;15.26;100.00;101962.50;5062053;28;20239;-75
2022/10/17 10:45:20;;;;;;;3.55;3.25;;;;;;;15.26;100.00;101970.44;5058661;28;20060;-75
2022/10/17 10:47:54;;;;;;;5.18;3.67;;;;;;;15.26;100.00;101973.06;5071462;28;20051;-75
2022/10/17 10:50:24;;;;;;;3.72;3.40;;;;;;;15.25;100.00;101968.75;5056303;28;20573;-74
2022/10/17 10:52:54;;;;;;;5.40;3.55;;;;;;;15.25;100.00;101971.38;5055222;28;20090;-74
2022/10/17 10:55:30;;;;;;;4.35;3.65;;;;;;;15.24;100.00;101973.13;5056258;28;20347;-74
2022/10/17 10:58:02;;;;;;;2.70;2.50;;;;;;;15.25;100.00;101979.28;5055940;28;20074;-74
2022/10/17 11:00:32;;;;;;;3.10;2.80;;;;;;;15.23;100.00;101983.78;5071251;28;20285;-74
2022/10/17 11:03:22;;;;;;;2.42;2.20;;;;;;;15.23;100.00;101989.06;5055814;28;20323;-74
2022/10/17 11:06:04;;;;;;;2.70;2.50;;;;;;;15.21;100.00;101981.19;5055904;28;20096;-75
2022/10/17 11:09:01;;;;;;;1.92;1.83;;;;;;;15.20;100.00;101984.75;5056209;28;20028;-75
2022/10/17 11:11:30;;;;;;;2.38;2.10;;;;;;;15.19;100.00;101983.06;5060838;28;20044;-75
2022/10/17 11:14:37;;;;;;;4.18;2.47;;;;;;;15.20;100.00;101986.53;5064998;28;20448;-74
2022/10/17 11:17:14;;;;;;;2.30;2.10;;;;;;;15.19;100.00;101983.06;5032074;28;20037;-75
2022/10/17 11:19:46;;;;;;;2.28;2.08;;;;;;;15.18;100.00;101981.31;5056044;28;20037;-75
2022/10/17 11:22:20;;;;;;;4.80;2.30;;;;;;;15.19;100.00;101990.97;5055726;28;20375;-75
2022/10/17 11:24:55;;;;;;;3.47;2.45;;;;;;;15.20;100.00;102005.00;5055313;28;20235;-75
2022/10/17 11:27:23;;;;;;;3.63;2.47;;;;;;;15.19;100.00;102012.06;5053574;28;20021;-75
2022/10/17 11:29:49;;;;;;;3.00;2.67;;;;;;;15.20;100.00;102011.13;5071103;28;20040;-75
2022/10/17 11:32:51;;;;;;;5.75;2.90;;;;;;;15.21;100.00;102012.88;5054306;28;20331;-75